Ostrica, Louisiana
Current Conditions -  °F | °C
As of 3:51 AM on Thursday 23 Oct 2014 (Local Time) from KBVE Reporting Station
Clear Clear  
Wind Chill: 70°   Ceiling: Unl
Heat Index: 70°   Visibility: 10mi
Dew Point: 55°   Wind: 9mph
Humidity: 59%   Direction: 50°NE
Pressure: 30.03"   Gusts: NA
Location:  29.2996°N, 89.4367°W
Report Text: KBVE 230851Z AUTO 05008KT 10SM CLR 21/13 A3003 RMK AO2 SLP167 T02110128 56006
Loading
Personal Weather Stations






























Interactive Weather Map
Tropical Storm Tracking
New forecast layout! Learn more

10-Day Weather Forecast

Advertisements
Track Severe Weather on mobile